createdAt,value
2018-06-25T00:00:43.643Z,100.00
2018-06-25T00:01:43.681Z,100.00
2018-06-25T00:02:43.713Z,100.00
2018-06-25T00:03:43.628Z,100.00
2018-06-25T00:04:43.600Z,100.00
2018-06-25T00:05:43.594Z,100.00
2018-06-25T00:06:43.682Z,100.00
2018-06-25T00:07:43.595Z,100.00
2018-06-25T00:08:43.629Z,100.00
2018-06-25T00:09:43.722Z,100.00
2018-06-25T00:10:43.660Z,100.00
2018-06-25T00:11:43.687Z,100.00
2018-06-25T00:12:43.726Z,100.00
2018-06-25T00:13:43.682Z,100.00
2018-06-25T00:14:43.707Z,100.00
2018-06-25T00:15:43.732Z,100.00
2018-06-25T00:16:43.649Z,100.00
2018-06-25T00:17:43.702Z,100.00
2018-06-25T00:18:43.698Z,100.00
2018-06-25T00:19:43.733Z,100.00
2018-06-25T00:20:43.704Z,100.00
2018-06-25T00:21:43.734Z,100.00
2018-06-25T00:22:43.733Z,100.00
2018-06-25T00:23:43.666Z,100.00
2018-06-25T00:24:43.742Z,100.00
2018-06-25T00:25:43.735Z,100.00
2018-06-25T00:26:43.668Z,100.00
2018-06-25T00:27:43.737Z,100.00
2018-06-25T00:28:43.749Z,100.00
2018-06-25T00:29:43.677Z,100.00
2018-06-25T00:30:43.741Z,100.00
2018-06-25T00:31:43.773Z,100.00
2018-06-25T00:32:43.720Z,100.00
2018-06-25T00:33:43.778Z,100.00
2018-06-25T00:34:43.773Z,100.00
2018-06-25T00:35:43.768Z,100.00
2018-06-25T00:36:43.743Z,100.00
2018-06-25T00:37:43.724Z,100.00
2018-06-25T00:38:43.702Z,100.00
2018-06-25T00:39:43.687Z,100.00
2018-06-25T00:40:43.724Z,100.00
2018-06-25T00:41:43.786Z,100.00
2018-06-25T00:42:43.717Z,100.00
2018-06-25T00:43:43.745Z,100.00
2018-06-25T00:44:43.725Z,100.00
2018-06-25T00:45:43.793Z,100.00
2018-06-25T00:46:43.777Z,100.00
2018-06-25T00:47:43.730Z,100.00
2018-06-25T00:48:43.749Z,100.00
2018-06-25T00:49:43.677Z,100.00
2018-06-25T00:50:43.707Z,100.00
2018-06-25T00:51:43.752Z,100.00
2018-06-25T00:52:43.689Z,100.00
2018-06-25T00:53:43.755Z,100.00
2018-06-25T00:54:43.757Z,100.00
2018-06-25T00:55:43.692Z,100.00
2018-06-25T00:56:43.692Z,100.00
2018-06-25T00:57:43.755Z,100.00
2018-06-25T00:58:43.931Z,100.00
2018-06-25T00:59:43.690Z,100.00
2018-06-25T01:00:43.696Z,100.00
2018-06-25T01:01:43.759Z,100.00
2018-06-25T01:02:43.692Z,100.00
2018-06-25T01:03:43.760Z,100.00
2018-06-25T01:04:43.693Z,100.00
2018-06-25T01:05:43.773Z,100.00
2018-06-25T01:06:43.699Z,100.00
2018-06-25T01:07:43.761Z,100.00
2018-06-25T01:08:43.697Z,100.00
2018-06-25T01:09:43.701Z,100.00
2018-06-25T01:10:43.769Z,100.00
2018-06-25T01:11:43.755Z,100.00
2018-06-25T01:12:43.701Z,100.00
2018-06-25T01:13:43.658Z,100.00
2018-06-25T01:14:43.750Z,100.00
2018-06-25T01:15:43.693Z,100.00
2018-06-25T01:16:43.722Z,100.00
2018-06-25T01:17:43.661Z,100.00
2018-06-25T01:18:43.664Z,100.00
2018-06-25T01:19:43.751Z,100.00
2018-06-25T01:20:43.702Z,100.00
2018-06-25T01:21:43.781Z,100.00
2018-06-25T01:22:43.739Z,100.00
2018-06-25T01:23:43.695Z,100.00
2018-06-25T01:24:43.714Z,100.00
2018-06-25T01:25:43.754Z,100.00
2018-06-25T01:26:43.814Z,100.00
2018-06-25T01:27:43.815Z,100.00
2018-06-25T01:28:43.706Z,100.00
2018-06-25T01:29:43.777Z,100.00
2018-06-25T01:30:43.764Z,100.00
2018-06-25T01:31:43.747Z,100.00
2018-06-25T01:32:43.746Z,100.00
2018-06-25T01:33:43.805Z,100.00
2018-06-25T01:34:43.782Z,100.00
2018-06-25T01:35:43.756Z,100.00
2018-06-25T01:36:43.716Z,100.00
2018-06-25T01:37:43.812Z,100.00
2018-06-25T01:38:43.781Z,100.00
2018-06-25T01:39:43.813Z,100.00
2018-06-25T01:40:43.816Z,100.00
2018-06-25T01:41:43.792Z,100.00
2018-06-25T01:42:43.800Z,100.00
2018-06-25T01:43:43.719Z,100.00
2018-06-25T01:44:43.676Z,100.00
2018-06-25T01:45:43.725Z,100.00
2018-06-25T01:46:43.793Z,100.00
2018-06-25T01:47:43.723Z,100.00
2018-06-25T01:48:43.726Z,100.00
2018-06-25T01:49:43.729Z,100.00
2018-06-25T01:50:43.727Z,100.00
2018-06-25T01:51:43.665Z,100.00
2018-06-25T01:52:43.788Z,100.00
2018-06-25T01:53:43.699Z,100.00
2018-06-25T01:54:43.670Z,100.00
2018-06-25T01:55:43.792Z,100.00
2018-06-25T01:56:43.754Z,100.00
2018-06-25T01:57:43.787Z,100.00
2018-06-25T01:58:43.740Z,100.00
2018-06-25T01:59:43.726Z,100.00
2018-06-25T02:00:43.706Z,100.00
2018-06-25T02:01:43.801Z,100.00
2018-06-25T02:02:43.703Z,100.00
2018-06-25T02:03:43.769Z,100.00
2018-06-25T02:04:43.802Z,100.00
2018-06-25T02:05:43.740Z,100.00
2018-06-25T02:06:43.769Z,100.00
2018-06-25T02:07:43.770Z,100.00
2018-06-25T02:08:43.829Z,100.00
2018-06-25T02:09:43.743Z,100.00
2018-06-25T02:10:43.728Z,100.00
2018-06-25T02:11:43.806Z,100.00
2018-06-25T02:12:43.741Z,100.00
2018-06-25T02:13:43.744Z,100.00
2018-06-25T02:14:43.743Z,100.00
2018-06-25T02:15:43.818Z,100.00
2018-06-25T02:16:43.746Z,100.00
2018-06-25T02:17:43.813Z,100.00
2018-06-25T02:18:43.748Z,100.00
2018-06-25T02:19:43.813Z,100.00
2018-06-25T02:20:43.747Z,100.00
2018-06-25T02:21:43.778Z,100.00
2018-06-25T02:22:43.816Z,100.00
2018-06-25T02:23:43.716Z,100.00
2018-06-25T02:24:43.780Z,100.00
2018-06-25T02:25:43.738Z,100.00
2018-06-25T02:26:43.848Z,100.00
2018-06-25T02:27:43.852Z,100.00
2018-06-25T02:28:43.795Z,100.00
2018-06-25T02:29:43.756Z,100.00
2018-06-25T02:30:43.802Z,100.00
2018-06-25T02:31:43.899Z,100.00
2018-06-25T02:32:43.857Z,100.00
2018-06-25T02:33:43.743Z,100.00
2018-06-25T02:34:43.788Z,100.00
2018-06-25T02:35:43.747Z,100.00
2018-06-25T02:36:43.765Z,100.00
2018-06-25T02:37:43.823Z,100.00
2018-06-25T02:38:43.856Z,100.00
2018-06-25T02:39:43.734Z,100.00
2018-06-25T02:40:43.800Z,100.00
2018-06-25T02:41:43.799Z,100.00
2018-06-25T02:42:43.869Z,100.00
2018-06-25T02:43:43.871Z,100.00
2018-06-25T02:44:43.769Z,100.00
2018-06-25T02:45:43.729Z,100.00
2018-06-25T02:46:43.728Z,100.00
2018-06-25T02:47:43.736Z,100.00
2018-06-25T02:48:43.793Z,100.00
2018-06-25T02:49:43.755Z,100.00
2018-06-25T02:50:43.834Z,100.00
2018-06-25T02:51:43.769Z,100.00
2018-06-25T02:52:43.771Z,100.00
2018-06-25T02:53:43.767Z,100.00
2018-06-25T02:54:43.836Z,100.00
2018-06-25T02:55:43.800Z,100.00
2018-06-25T02:56:43.844Z,100.00
2018-06-25T02:57:43.769Z,100.00
2018-06-25T02:58:43.725Z,100.00
2018-06-25T02:59:43.776Z,100.00
2018-06-25T03:00:43.846Z,100.00
2018-06-25T03:01:43.773Z,100.00
2018-06-25T03:02:43.777Z,100.00
2018-06-25T03:03:43.844Z,100.00
2018-06-25T03:04:43.847Z,100.00
2018-06-25T03:05:43.776Z,100.00
2018-06-25T03:06:43.781Z,100.00
2018-06-25T03:07:43.855Z,100.00
2018-06-25T03:08:43.776Z,100.00
2018-06-25T03:09:43.876Z,100.00
2018-06-25T03:10:43.777Z,100.00
2018-06-25T03:11:43.844Z,100.00
2018-06-25T03:12:43.845Z,100.00
2018-06-25T03:13:43.884Z,100.00
2018-06-25T03:14:43.790Z,100.00
2018-06-25T03:15:43.785Z,100.00
2018-06-25T03:16:43.881Z,100.00
2018-06-25T03:17:43.769Z,100.00
2018-06-25T03:18:43.887Z,100.00
2018-06-25T03:19:43.857Z,100.00
2018-06-25T03:20:43.795Z,100.00
2018-06-25T03:21:43.810Z,100.00
2018-06-25T03:22:43.880Z,100.00
2018-06-25T03:23:43.827Z,100.00
2018-06-25T03:24:43.884Z,100.00
2018-06-25T03:25:43.857Z,100.00
2018-06-25T03:26:43.882Z,100.00
2018-06-25T03:27:43.831Z,100.00
2018-06-25T03:28:43.833Z,100.00
2018-06-25T03:29:43.891Z,100.00
2018-06-25T03:30:43.823Z,100.00
2018-06-25T03:31:43.791Z,100.00
2018-06-25T03:32:43.870Z,100.00
2018-06-25T03:33:43.791Z,100.00
2018-06-25T03:34:43.862Z,100.00
2018-06-25T03:35:43.794Z,100.00
2018-06-25T03:36:43.802Z,100.00
2018-06-25T03:37:43.868Z,100.00
2018-06-25T03:38:43.869Z,100.00
2018-06-25T03:39:43.803Z,100.00
2018-06-25T03:40:43.889Z,100.00
2018-06-25T03:41:43.801Z,100.00
2018-06-25T03:42:43.902Z,100.00
2018-06-25T03:43:43.905Z,100.00
2018-06-25T03:44:43.803Z,100.00
2018-06-25T03:45:43.831Z,100.00
2018-06-25T03:46:43.885Z,100.00
2018-06-25T03:47:43.871Z,100.00
2018-06-25T03:48:43.804Z,100.00
2018-06-25T03:49:43.803Z,100.00
2018-06-25T03:50:43.904Z,100.00
2018-06-25T03:51:43.739Z,100.00
2018-06-25T03:52:43.794Z,100.00
2018-06-25T03:53:43.825Z,100.00
2018-06-25T03:54:43.803Z,100.00
2018-06-25T03:55:43.831Z,100.00
2018-06-25T03:56:43.804Z,100.00
2018-06-25T03:57:43.855Z,100.00
2018-06-25T03:58:43.784Z,100.00
2018-06-25T03:59:43.851Z,100.00
2018-06-25T04:00:43.798Z,100.00
2018-06-25T04:01:43.827Z,100.00
2018-06-25T04:02:43.867Z,100.00
2018-06-25T04:03:43.768Z,100.00
2018-06-25T04:04:43.782Z,100.00
2018-06-25T04:05:43.865Z,100.00
2018-06-25T04:06:43.784Z,100.00
2018-06-25T04:07:43.831Z,100.00
2018-06-25T04:08:43.883Z,100.00
2018-06-25T04:09:43.868Z,100.00
2018-06-25T04:10:43.889Z,100.00
2018-06-25T04:11:43.848Z,100.00
2018-06-25T04:12:43.862Z,100.00
2018-06-25T04:13:43.787Z,100.00
2018-06-25T04:14:43.866Z,100.00
2018-06-25T04:15:43.918Z,100.00
2018-06-25T04:16:43.891Z,100.00
2018-06-25T04:17:43.853Z,100.00
2018-06-25T04:18:43.864Z,100.00
2018-06-25T04:19:43.891Z,100.00
2018-06-25T04:20:43.973Z,100.00
2018-06-25T04:21:43.856Z,100.00
2018-06-25T04:22:43.915Z,100.00
2018-06-25T04:23:43.990Z,100.00
2018-06-25T04:24:43.799Z,100.00
2018-06-25T04:25:43.862Z,100.00
2018-06-25T04:26:43.931Z,100.00
2018-06-25T04:27:43.927Z,100.00
2018-06-25T04:28:43.857Z,100.00
2018-06-25T04:29:43.804Z,100.00
2018-06-25T04:30:43.863Z,100.00
2018-06-25T04:31:43.919Z,100.00
2018-06-25T04:32:43.830Z,100.00
2018-06-25T04:33:43.899Z,100.00
2018-06-25T04:34:43.861Z,100.00
2018-06-25T04:35:43.836Z,100.00
2018-06-25T04:36:43.911Z,100.00
2018-06-25T04:37:43.833Z,100.00
2018-06-25T04:38:43.916Z,100.00
2018-06-25T04:39:43.839Z,100.00
2018-06-25T04:40:43.920Z,100.00
2018-06-25T04:41:43.902Z,100.00
2018-06-25T04:42:43.836Z,100.00
2018-06-25T04:43:43.908Z,100.00
2018-06-25T04:44:43.841Z,100.00
2018-06-25T04:45:43.909Z,100.00
2018-06-25T04:46:43.841Z,100.00
2018-06-25T04:48:43.839Z,100.00
2018-06-25T04:49:43.909Z,100.00
2018-06-25T04:50:43.912Z,100.00
2018-06-25T04:51:43.846Z,100.00
2018-06-25T04:52:43.910Z,100.00
2018-06-25T04:53:43.813Z,100.00
2018-06-25T04:54:43.853Z,100.00
2018-06-25T04:55:43.852Z,100.00
2018-06-25T04:56:43.916Z,100.00
2018-06-25T04:57:43.846Z,100.00
2018-06-25T04:58:43.914Z,100.00
2018-06-25T04:59:43.858Z,100.00
2018-06-25T05:00:43.920Z,100.00
2018-06-25T05:01:43.917Z,100.00
2018-06-25T05:02:43.917Z,100.00
2018-06-25T05:03:43.856Z,100.00
2018-06-25T05:04:43.854Z,100.00
2018-06-25T05:05:43.919Z,100.00
2018-06-25T05:06:43.923Z,100.00
2018-06-25T05:07:43.853Z,100.00
2018-06-25T05:08:43.985Z,100.00
2018-06-25T05:09:43.946Z,100.00
2018-06-25T05:10:43.895Z,100.00
2018-06-25T05:11:43.858Z,100.00
2018-06-25T05:12:43.925Z,100.00
2018-06-25T05:13:43.961Z,100.00
2018-06-25T05:14:43.959Z,100.00
2018-06-25T05:15:43.924Z,100.00
2018-06-25T05:16:43.892Z,100.00
2018-06-25T05:17:43.912Z,100.00
2018-06-25T05:18:43.867Z,100.00
2018-06-25T05:19:44.005Z,100.00
2018-06-25T05:20:43.838Z,100.00
2018-06-25T05:21:43.953Z,100.00
2018-06-25T05:22:43.891Z,99.99
2018-06-25T05:23:44.026Z,99.99
2018-06-25T05:24:43.857Z,99.99
2018-06-25T05:25:43.965Z,99.99
2018-06-25T05:26:43.968Z,99.99
2018-06-25T05:27:43.934Z,99.99
2018-06-25T05:28:43.844Z,99.99
2018-06-25T05:29:43.960Z,99.99
2018-06-25T05:30:43.841Z,99.99
2018-06-25T05:31:43.938Z,99.99
2018-06-25T05:32:43.869Z,99.99
2018-06-25T05:33:43.869Z,99.99
2018-06-25T05:34:43.871Z,99.99
2018-06-25T05:35:43.873Z,99.99
2018-06-25T05:36:43.943Z,99.99
2018-06-25T05:37:43.976Z,99.99
2018-06-25T05:38:43.940Z,99.86
2018-06-25T05:39:43.900Z,99.51
2018-06-25T05:40:43.891Z,98.94
2018-06-25T05:41:43.875Z,98.40
2018-06-25T05:42:44.038Z,98.02
2018-06-25T05:43:43.878Z,97.47
2018-06-25T05:44:43.879Z,96.93
2018-06-25T05:45:43.882Z,96.80
2018-06-25T05:46:43.882Z,96.39
2018-06-25T05:47:43.947Z,96.20
2018-06-25T05:48:43.881Z,96.45
2018-06-25T05:49:43.885Z,96.36
2018-06-25T05:50:43.948Z,96.34
2018-06-25T05:51:43.948Z,96.74
2018-06-25T05:52:43.917Z,96.85
2018-06-25T05:53:43.861Z,96.93
2018-06-25T05:54:43.951Z,96.93
2018-06-25T05:55:43.918Z,96.74
2018-06-25T05:56:43.914Z,96.96
2018-06-25T05:57:43.925Z,96.83
2018-06-25T05:58:43.976Z,96.58
2018-06-25T05:59:43.956Z,96.45
2018-06-25T06:00:43.958Z,95.88
2018-06-25T06:01:43.980Z,95.69
2018-06-25T06:02:43.932Z,95.61
2018-06-25T06:03:43.896Z,95.47
2018-06-25T06:04:43.942Z,95.47
2018-06-25T06:05:43.879Z,95.72
2018-06-25T06:06:43.915Z,95.75
2018-06-25T06:07:43.881Z,96.17
2018-06-25T06:08:43.985Z,95.91
2018-06-25T06:09:43.930Z,95.75
2018-06-25T06:10:43.940Z,95.56
2018-06-25T06:11:43.991Z,95.56
2018-06-25T06:12:43.896Z,95.50
2018-06-25T06:13:43.969Z,95.75
2018-06-25T06:14:43.902Z,96.02
2018-06-25T06:15:43.966Z,96.23
2018-06-25T06:16:43.902Z,96.15
2018-06-25T06:17:43.989Z,96.20
2018-06-25T06:18:43.970Z,95.80
2018-06-25T06:19:43.904Z,95.77
2018-06-25T06:20:43.968Z,95.61
2018-06-25T06:21:43.901Z,95.83
2018-06-25T06:22:43.934Z,95.85
2018-06-25T06:23:44.013Z,96.09
2018-06-25T06:24:43.932Z,95.83
2018-06-25T06:25:43.923Z,95.98
2018-06-25T06:26:43.996Z,95.96
2018-06-25T06:27:43.886Z,96.07
2018-06-25T06:28:43.930Z,95.18
2018-06-25T06:29:43.939Z,94.61
2018-06-25T06:30:43.883Z,94.64
2018-06-25T06:31:44.001Z,93.99
2018-06-25T06:32:44.065Z,93.13
2018-06-25T06:33:43.912Z,93.18
2018-06-25T06:34:43.912Z,93.37
2018-06-25T06:35:43.913Z,93.75
2018-06-25T06:36:43.979Z,93.81
2018-06-25T06:37:43.968Z,93.26
2018-06-25T06:38:43.915Z,92.49
2018-06-25T06:39:43.917Z,92.16
2018-06-25T06:40:43.921Z,92.40
2018-06-25T06:41:43.984Z,91.52
2018-06-25T06:42:43.971Z,91.25
2018-06-25T06:43:43.917Z,91.60
2018-06-25T06:44:43.970Z,90.80
2018-06-25T06:45:43.861Z,90.39
2018-06-25T06:46:43.970Z,90.88
2018-06-25T06:47:43.973Z,91.25
2018-06-25T06:48:43.962Z,91.79
2018-06-25T06:49:43.857Z,92.32
2018-06-25T06:50:43.879Z,92.78
2018-06-25T06:51:43.911Z,92.27
2018-06-25T06:52:43.979Z,92.46
2018-06-25T06:53:43.894Z,92.62
2018-06-25T06:54:43.957Z,92.08
2018-06-25T06:55:43.979Z,91.30
2018-06-25T06:56:43.948Z,91.25
2018-06-25T06:57:44.031Z,91.25
2018-06-25T06:58:43.943Z,90.98
2018-06-25T06:59:43.928Z,91.30
2018-06-25T07:00:43.980Z,91.20
2018-06-25T07:01:43.996Z,91.63
2018-06-25T07:02:43.908Z,91.73
2018-06-25T07:03:43.937Z,90.63
2018-06-25T07:04:43.931Z,90.02
2018-06-25T07:05:43.886Z,88.87
2018-06-25T07:06:43.996Z,88.68
2018-06-25T07:07:43.933Z,89.14
2018-06-25T07:08:43.991Z,89.40
2018-06-25T07:09:43.989Z,89.62
2018-06-25T07:10:43.906Z,88.89
2018-06-25T07:11:43.911Z,88.62
2018-06-25T07:12:43.943Z,87.67
2018-06-25T07:13:44.032Z,87.59
2018-06-25T07:14:43.985Z,88.09
2018-06-25T07:15:43.968Z,87.61
2018-06-25T07:16:44.037Z,87.90
2018-06-25T07:17:43.906Z,87.88
2018-06-25T07:18:43.974Z,87.10
2018-06-25T07:19:43.935Z,87.77
2018-06-25T07:20:44.018Z,87.69
2018-06-25T07:21:43.975Z,88.20
2018-06-25T07:22:43.981Z,87.02
2018-06-25T07:23:44.047Z,87.26
2018-06-25T07:24:44.014Z,86.79
2018-06-25T07:25:44.016Z,87.37
2018-06-25T07:26:43.922Z,87.51
2018-06-25T07:27:43.915Z,87.77
2018-06-25T07:28:43.925Z,87.45
2018-06-25T07:29:43.987Z,88.15
2018-06-25T07:30:43.979Z,88.97
2018-06-25T07:31:44.046Z,88.76
2018-06-25T07:32:43.989Z,88.68
2018-06-25T07:33:43.990Z,88.36
2018-06-25T07:34:43.984Z,88.60
2018-06-25T07:35:44.058Z,87.77
2018-06-25T07:36:44.019Z,87.02
2018-06-25T07:37:43.984Z,87.59
2018-06-25T07:38:43.996Z,88.15
2018-06-25T07:39:43.990Z,86.94
2018-06-25T07:40:44.044Z,85.77
2018-06-25T07:41:44.050Z,85.85
2018-06-25T07:42:43.985Z,86.65
2018-06-25T07:43:43.999Z,87.40
2018-06-25T07:44:43.937Z,86.87
2018-06-25T07:45:44.055Z,85.85
2018-06-25T07:46:43.930Z,85.91
2018-06-25T07:47:43.993Z,86.57
2018-06-25T07:48:44.054Z,86.07
2018-06-25T07:49:43.937Z,86.17
2018-06-25T07:50:43.992Z,86.12
2018-06-25T07:51:43.993Z,86.28
2018-06-25T07:52:43.940Z,86.94
2018-06-25T07:53:43.997Z,87.59
2018-06-25T07:54:44.054Z,87.08
2018-06-25T07:55:44.071Z,86.68
2018-06-25T07:56:44.037Z,86.87
2018-06-25T07:57:43.938Z,85.99
2018-06-25T07:58:44.004Z,85.05
2018-06-25T07:59:44.001Z,85.11
2018-06-25T08:00:43.989Z,84.47
2018-06-25T08:01:44.010Z,84.68
2018-06-25T08:02:44.015Z,83.97
2018-06-25T08:03:44.125Z,84.15
2018-06-25T08:04:44.071Z,84.60
2018-06-25T08:05:43.934Z,84.52
2018-06-25T08:06:44.003Z,84.17
2018-06-25T08:07:44.080Z,83.46
2018-06-25T08:08:43.966Z,83.97
2018-06-25T08:09:43.948Z,83.99
2018-06-25T08:10:43.981Z,83.20
2018-06-25T08:11:44.075Z,82.75
2018-06-25T08:12:44.020Z,82.24
2018-06-25T08:13:44.012Z,82.67
2018-06-25T08:14:43.989Z,82.59
2018-06-25T08:15:44.009Z,82.61
2018-06-25T08:16:44.152Z,81.74
2018-06-25T08:17:44.077Z,82.72
2018-06-25T08:18:44.062Z,81.52
2018-06-25T08:19:44.001Z,82.35
2018-06-25T08:20:44.106Z,81.76
2018-06-25T08:21:43.952Z,80.76
2018-06-25T08:22:43.960Z,81.90
2018-06-25T08:23:44.083Z,82.27
2018-06-25T08:24:44.047Z,81.68
2018-06-25T08:25:44.083Z,80.79
2018-06-25T08:26:44.084Z,80.10
2018-06-25T08:27:43.961Z,79.81
2018-06-25T08:28:44.061Z,80.29
2018-06-25T08:29:44.100Z,82.32
2018-06-25T08:30:44.052Z,81.79
2018-06-25T08:31:44.027Z,79.28
2018-06-25T08:32:44.058Z,76.65
2018-06-25T08:33:43.996Z,74.76
2018-06-25T08:34:44.064Z,74.92
2018-06-25T08:35:44.057Z,74.97
2018-06-25T08:36:43.998Z,78.41
2018-06-25T08:37:43.944Z,73.11
2018-06-25T08:38:44.068Z,73.30
2018-06-25T08:39:44.029Z,74.84
2018-06-25T08:40:44.066Z,72.77
2018-06-25T08:41:43.997Z,72.53
2018-06-25T08:42:44.068Z,72.93
2018-06-25T08:43:44.028Z,70.87
2018-06-25T08:44:43.969Z,71.75
2018-06-25T08:45:44.089Z,72.07
2018-06-25T08:46:44.106Z,73.22
2018-06-25T08:47:43.972Z,72.85
2018-06-25T08:48:44.089Z,74.42
2018-06-25T08:49:43.973Z,74.79
2018-06-25T08:50:44.104Z,75.31
2018-06-25T08:51:44.042Z,76.83
2018-06-25T08:52:44.038Z,77.15
2018-06-25T08:53:44.040Z,77.81
2018-06-25T08:54:44.090Z,78.52
2018-06-25T08:55:44.028Z,78.94
2018-06-25T08:56:44.059Z,78.99
2018-06-25T08:57:43.979Z,77.31
2018-06-25T08:58:43.993Z,75.62
2018-06-25T08:59:43.981Z,75.10
2018-06-25T09:00:44.056Z,75.18
2018-06-25T09:01:43.985Z,74.81
2018-06-25T09:02:44.055Z,75.23
2018-06-25T09:03:44.097Z,75.52
2018-06-25T09:04:44.049Z,76.89
2018-06-25T09:05:44.099Z,74.89
2018-06-25T09:06:43.998Z,73.89
2018-06-25T09:07:44.039Z,72.59
2018-06-25T09:08:44.114Z,72.07
2018-06-25T09:09:44.118Z,70.17
2018-06-25T09:10:44.081Z,70.29
2018-06-25T09:11:44.042Z,72.30
2018-06-25T09:12:44.123Z,71.03
2018-06-25T09:13:44.110Z,71.86
2018-06-25T09:14:44.103Z,73.03
2018-06-25T09:15:44.009Z,74.29
2018-06-25T09:16:44.094Z,73.66
2018-06-25T09:17:44.065Z,73.97
2018-06-25T09:18:44.126Z,75.05
2018-06-25T09:19:44.053Z,76.23
2018-06-25T09:20:44.120Z,77.47
2018-06-25T09:21:43.998Z,75.41
2018-06-25T09:22:44.026Z,77.31
2018-06-25T09:23:44.104Z,77.65
2018-06-25T09:24:44.023Z,77.65
2018-06-25T09:25:44.094Z,77.65
2018-06-25T09:26:44.113Z,77.65
2018-06-25T09:27:44.168Z,77.65
2018-06-25T09:28:44.099Z,77.65
2018-06-25T09:29:44.031Z,77.65
2018-06-25T09:30:44.094Z,77.65
2018-06-25T09:31:44.033Z,77.65
2018-06-25T09:32:44.092Z,77.65
2018-06-25T09:33:43.999Z,77.65
2018-06-25T09:34:44.060Z,77.65
2018-06-25T09:35:44.074Z,77.65
2018-06-25T09:36:44.000Z,77.65
2018-06-25T09:37:44.040Z,77.65
2018-06-25T09:38:44.120Z,77.65
2018-06-25T09:39:44.068Z,77.65
2018-06-25T09:40:44.139Z,77.65
2018-06-25T09:41:44.318Z,77.65
2018-06-25T09:42:44.037Z,77.65
2018-06-25T09:43:44.102Z,77.65
2018-06-25T09:44:44.040Z,77.65
2018-06-25T09:45:44.039Z,79.71
2018-06-25T09:46:44.105Z,80.57
2018-06-25T09:47:44.042Z,81.50
2018-06-25T09:48:44.040Z,81.56
2018-06-25T09:49:44.111Z,81.52
2018-06-25T09:50:44.107Z,81.56
2018-06-25T09:51:44.111Z,81.05
2018-06-25T09:52:44.131Z,81.92
2018-06-25T09:53:44.012Z,82.08
2018-06-25T09:54:44.201Z,81.60
2018-06-25T09:55:44.080Z,81.16
2018-06-25T09:56:44.075Z,81.02
2018-06-25T09:57:44.138Z,80.87
2018-06-25T09:58:44.122Z,80.73
2018-06-25T09:59:44.086Z,80.39
2018-06-25T10:00:44.081Z,81.05
2018-06-25T10:01:44.119Z,81.45
2018-06-25T10:02:44.115Z,80.47
2018-06-25T10:03:44.119Z,80.57
2018-06-25T10:04:44.051Z,81.13
2018-06-25T10:05:44.056Z,80.97
2018-06-25T10:06:44.122Z,80.92
2018-06-25T10:07:44.080Z,80.23
2018-06-25T10:08:44.120Z,80.29
2018-06-25T10:09:44.119Z,79.57
2018-06-25T10:10:44.067Z,79.89
2018-06-25T10:11:44.122Z,80.39
2018-06-25T10:12:44.141Z,80.15
2018-06-25T10:13:44.162Z,79.83
2018-06-25T10:14:44.033Z,80.05
2018-06-25T10:15:44.086Z,80.84
2018-06-25T10:16:44.146Z,81.16
2018-06-25T10:17:44.035Z,81.40
2018-06-25T10:18:44.161Z,81.79
2018-06-25T10:19:44.124Z,82.08
2018-06-25T10:20:44.092Z,83.01
2018-06-25T10:21:44.028Z,83.22
2018-06-25T10:22:44.175Z,83.91
2018-06-25T10:23:44.107Z,84.17
2018-06-25T10:24:44.097Z,84.12
2018-06-25T10:25:44.131Z,84.07
2018-06-25T10:26:44.135Z,84.15
2018-06-25T10:27:44.103Z,84.23
2018-06-25T10:28:44.132Z,84.42
2018-06-25T10:29:44.042Z,83.91
2018-06-25T10:30:44.101Z,83.94
2018-06-25T10:31:44.041Z,83.30
2018-06-25T10:32:44.005Z,83.91
2018-06-25T10:33:44.043Z,83.49
2018-06-25T10:34:44.135Z,82.85
2018-06-25T10:35:44.061Z,82.67
2018-06-25T10:36:44.126Z,82.61
2018-06-25T10:37:44.077Z,82.24
2018-06-25T10:38:44.075Z,82.32
2018-06-25T10:39:44.010Z,82.32
2018-06-25T10:40:44.125Z,82.64
2018-06-25T10:41:44.056Z,82.77
2018-06-25T10:42:44.219Z,82.69
2018-06-25T10:43:44.164Z,83.62
2018-06-25T10:44:44.171Z,83.78
2018-06-25T10:45:44.144Z,84.15
2018-06-25T10:46:44.163Z,83.94
2018-06-25T10:47:44.070Z,84.15
2018-06-25T10:48:44.071Z,84.26
2018-06-25T10:49:44.117Z,84.50
2018-06-25T10:50:44.129Z,84.92
2018-06-25T10:51:44.108Z,85.43
2018-06-25T10:52:44.180Z,85.88
2018-06-25T10:53:44.090Z,85.96
2018-06-25T10:54:44.152Z,86.52
2018-06-25T10:55:44.090Z,86.65
2018-06-25T10:56:44.152Z,86.54
2018-06-25T10:57:44.090Z,86.25
2018-06-25T10:58:44.157Z,85.08
2018-06-25T10:59:44.250Z,84.34
2018-06-25T11:00:44.128Z,84.58
2018-06-25T11:01:44.093Z,84.84
2018-06-25T11:02:44.156Z,83.49
2018-06-25T11:03:44.144Z,82.53
2018-06-25T11:04:44.067Z,82.77
2018-06-25T11:05:44.064Z,81.92
2018-06-25T11:06:44.094Z,81.95
2018-06-25T11:07:44.220Z,81.05
2018-06-25T11:08:44.084Z,80.23
2018-06-25T11:09:44.161Z,79.63
2018-06-25T11:10:44.051Z,78.86
2018-06-25T11:11:44.161Z,77.20
2018-06-25T11:12:44.099Z,78.62
2018-06-25T11:13:44.148Z,78.70
2018-06-25T11:14:44.194Z,79.20
2018-06-25T11:15:44.122Z,77.97
2018-06-25T11:16:44.191Z,79.23
2018-06-25T11:17:44.139Z,76.36
2018-06-25T11:18:44.071Z,76.39
2018-06-25T11:19:44.206Z,75.68
2018-06-25T11:20:44.173Z,75.37
2018-06-25T11:21:44.198Z,76.20
2018-06-25T11:22:44.170Z,75.55
2018-06-25T11:23:44.158Z,76.34
2018-06-25T11:24:44.172Z,76.54
2018-06-25T11:25:44.169Z,76.39
2018-06-25T11:26:44.084Z,75.99
2018-06-25T11:27:44.221Z,75.57
2018-06-25T11:28:44.172Z,76.20
2018-06-25T11:29:44.078Z,75.73
2018-06-25T11:30:44.113Z,75.89
2018-06-25T11:31:44.128Z,75.05
2018-06-25T11:32:44.120Z,75.02
2018-06-25T11:33:44.074Z,72.09
2018-06-25T11:34:44.208Z,72.43
2018-06-25T11:35:44.211Z,71.86
2018-06-25T11:36:44.155Z,72.41
2018-06-25T11:37:44.208Z,72.67
2018-06-25T11:38:44.145Z,74.34
2018-06-25T11:39:44.162Z,75.18
2018-06-25T11:40:44.221Z,74.24
2018-06-25T11:41:44.206Z,73.42
2018-06-25T11:42:44.083Z,71.00
2018-06-25T11:43:44.186Z,72.25
2018-06-25T11:44:44.115Z,72.46
2018-06-25T11:45:44.187Z,73.27
2018-06-25T11:46:44.123Z,73.95
2018-06-25T11:47:44.187Z,74.13
2018-06-25T11:48:44.123Z,74.05
2018-06-25T11:49:44.144Z,75.13
2018-06-25T11:50:44.124Z,75.41
2018-06-25T11:51:44.203Z,75.65
2018-06-25T11:52:44.123Z,75.92
2018-06-25T11:53:44.093Z,76.70
2018-06-25T11:54:44.228Z,76.20
2018-06-25T11:55:44.211Z,75.76
2018-06-25T11:56:44.223Z,75.18
2018-06-25T11:57:44.214Z,74.24
2018-06-25T11:58:44.157Z,74.26
2018-06-25T11:59:44.224Z,74.50
2018-06-25T12:00:44.163Z,75.10
2018-06-25T12:01:44.236Z,74.08
2018-06-25T12:02:44.358Z,74.84
2018-06-25T12:03:44.229Z,75.78
2018-06-25T12:04:44.152Z,74.11
2018-06-25T12:05:44.172Z,73.69
2018-06-25T12:06:44.200Z,73.85
2018-06-25T12:07:44.101Z,74.08
2018-06-25T12:08:44.220Z,74.03
2018-06-25T12:09:44.126Z,73.22
2018-06-25T12:10:44.336Z,72.98
2018-06-25T12:11:44.231Z,73.63
2018-06-25T12:12:44.233Z,73.79
2018-06-25T12:13:44.187Z,71.57
2018-06-25T12:14:44.140Z,70.50
2018-06-25T12:15:44.133Z,71.21
2018-06-25T12:16:44.133Z,71.44
2018-06-25T12:17:44.197Z,73.32
2018-06-25T12:18:44.192Z,70.40
2018-06-25T12:19:44.208Z,70.21
2018-06-25T12:20:44.192Z,70.01
2018-06-25T12:21:44.210Z,70.60
2018-06-25T12:22:44.209Z,70.43
2018-06-25T12:23:44.120Z,70.84
2018-06-25T12:24:44.240Z,69.82
2018-06-25T12:25:44.247Z,70.79
2018-06-25T12:26:44.246Z,70.11
2018-06-25T12:27:44.345Z,70.48
2018-06-25T12:28:44.184Z,69.75
2018-06-25T12:29:44.215Z,70.17
2018-06-25T12:30:44.184Z,71.44
2018-06-25T12:31:44.118Z,70.74
2018-06-25T12:32:44.215Z,71.23
2018-06-25T12:33:44.174Z,70.60
2018-06-25T12:34:44.252Z,71.18
2018-06-25T12:35:44.200Z,70.48
2018-06-25T12:36:44.186Z,71.03
2018-06-25T12:37:44.278Z,70.29
2018-06-25T12:38:44.192Z,71.03
2018-06-25T12:39:44.223Z,70.37
2018-06-25T12:40:44.242Z,69.98
2018-06-25T12:41:44.201Z,71.31
2018-06-25T12:42:44.226Z,71.39
2018-06-25T12:43:44.128Z,68.99